Weather History for KD39 - January, 2013

Change the Weather History Date:

Friday, January 18, 2013

  Actual Average (KGHW) Record (KGHW)
Temperature  
Mean Temperature 22 °F -  
Max Temperature 32 °F 20 °F 42 °F (1981)
Min Temperature 12 °F 2 °F -35 °F (1967)
Degree Days  
Heating Degree Days 43    
Moisture  
Dew Point 19 °F    
Average Humidity 86    
Maximum Humidity 100    
Minimum Humidity 75    
Precipitation  
Precipitation 0.00 in - - ()
Sea Level Pressure  
Sea Level Pressure 29.82 in    
Wind  
Wind Speed 7 mph (South)    
Max Wind Speed 13 mph    
Max Gust Speed 17 mph    
Visibility 9 miles    
Events Fog , Snow    
Averages and records for this station are not official NWS values.
T = Trace of Precipitation, MM = Missing Value Source: NWS Daily Summary

Daily Weather History Graph

Daily Weather History Graph

Search for Another Location

Airport or City:

Trip Planner

Search our weather history database for the weather conditions in past years. The results will help you decide how hot, cold, wet, or windy it might be!

Date:

Astronomy

Jan. 18, 2013 Rise Set
Actual Time 7:54 AM CST 5:06 PM CST
Civil Twilight 7:21 AM CST 5:39 PM CST
Nautical Twilight 6:44 AM CST 6:16 PM CST
Astronomical Twilight 6:09 AM CST 6:51 PM CST
Moon 11:07 AM CST (1/18) 12:22 AM CST (1/18)
Length of Visible Light 10h 17m
Length of Day
9h 11m
Waxing Crescent, 47% of the Moon is Illuminated
Jan 18
Waxing Crescent
Jan 18
First Quarter
Jan 26
Full
Feb 3
Last Quarter
Feb 10
New

Hourly Weather History & Observations

Time (CST) Temp. Windchill Dew Point Humidity Pressure Visibility Wind Dir Wind Speed Gust Speed Precip Events Conditions
12:15 AM 12.2 °F 1.7 °F 8.6 °F 85% 30.17 in 2.0 mi ESE 6.9 mph - N/A Snow Light Snow
12:35 AM 12.2 °F 1.7 °F 10.4 °F 92% 30.15 in 3.0 mi SE 6.9 mph - N/A Snow Light Snow
12:55 AM 14.0 °F 2.9 °F 10.4 °F 86% 30.13 in 7.0 mi ESE 8.1 mph - N/A Snow Light Snow
1:15 AM 14.0 °F 3.9 °F 10.4 °F 86% 30.12 in 7.0 mi ESE 6.9 mph - N/A Snow Light Snow
1:35 AM 14.0 °F 2.9 °F 10.4 °F 86% 30.10 in 10.0 mi ESE 8.1 mph - N/A   Overcast
1:55 AM 14.0 °F 3.9 °F 10.4 °F 86% 30.09 in 10.0 mi East 6.9 mph - N/A   Overcast
2:15 AM 14.0 °F 2.0 °F 10.4 °F 86% 30.08 in 10.0 mi ESE 9.2 mph - N/A   Overcast
2:35 AM 15.8 °F 5.1 °F 10.4 °F 79% 30.07 in 10.0 mi East 8.1 mph - N/A   Overcast
2:55 AM 15.8 °F 3.4 °F 10.4 °F 79% 30.06 in 10.0 mi ESE 10.4 mph - N/A   Overcast
3:15 AM 15.8 °F 3.4 °F 12.2 °F 86% 30.04 in 10.0 mi ESE 10.4 mph - N/A   Overcast
3:35 AM 15.8 °F 3.4 °F 12.2 °F 86% 30.02 in 10.0 mi SE 10.4 mph - N/A   Overcast
3:55 AM 15.8 °F 2.1 °F 12.2 °F 86% 29.99 in 10.0 mi SE 12.7 mph - N/A   Overcast
4:15 AM 17.6 °F 4.3 °F 12.2 °F 79% 29.97 in 10.0 mi SE 12.7 mph - N/A   Overcast
4:35 AM 17.6 °F 5.7 °F 12.2 °F 79% 29.95 in 10.0 mi SE 10.4 mph 17.3 mph N/A   Overcast
4:55 AM 17.6 °F 5.0 °F 12.2 °F 79% 29.93 in 10.0 mi SE 11.5 mph - N/A   Mostly Cloudy
5:15 AM 17.6 °F 6.4 °F 12.2 °F 79% 29.91 in 10.0 mi SE 9.2 mph - N/A   Mostly Cloudy
5:35 AM 17.6 °F 5.0 °F 12.2 °F 79% 29.90 in 10.0 mi SE 11.5 mph - N/A   Scattered Clouds
5:55 AM 17.6 °F 5.0 °F 12.2 °F 79% 29.87 in 10.0 mi SE 11.5 mph - N/A   Mostly Cloudy
6:15 AM 17.6 °F 6.4 °F 14.0 °F 86% 29.86 in 10.0 mi SE 9.2 mph - N/A   Mostly Cloudy
6:35 AM 17.6 °F 7.3 °F 14.0 °F 86% 29.85 in 10.0 mi SE 8.1 mph - N/A   Mostly Cloudy
6:55 AM 19.4 °F 8.6 °F 14.0 °F 80% 29.83 in 10.0 mi SE 9.2 mph - N/A   Overcast
7:15 AM 19.4 °F 10.4 °F 15.8 °F 86% 29.83 in 10.0 mi SSE 6.9 mph - N/A   Overcast
7:35 AM 19.4 °F 9.5 °F 15.8 °F 86% 29.81 in 10.0 mi SE 8.1 mph - N/A   Mostly Cloudy
7:55 AM 19.4 °F 9.5 °F 17.6 °F 93% 29.79 in 10.0 mi SE 8.1 mph - N/A   Scattered Clouds
8:15 AM 19.4 °F 11.5 °F 17.6 °F 93% 29.80 in 10.0 mi SSE 5.8 mph - N/A   Scattered Clouds
8:35 AM 21.2 °F 12.6 °F 17.6 °F 86% 29.79 in 10.0 mi SE 6.9 mph - N/A   Clear
8:55 AM 21.2 °F 13.6 °F 17.6 °F 86% 29.78 in 10.0 mi SE 5.8 mph - N/A   Clear
9:15 AM 21.2 °F 13.6 °F 19.4 °F 93% 29.78 in 10.0 mi SSE 5.8 mph - N/A   Mostly Cloudy
9:35 AM 23.0 °F 15.8 °F 19.4 °F 86% 29.77 in 10.0 mi SE 5.8 mph - N/A   Overcast
9:55 AM 23.0 °F 18.4 °F 19.4 °F 86% 29.77 in 10.0 mi SE 3.5 mph - N/A   Mostly Cloudy
10:15 AM 23.0 °F 15.8 °F 19.4 °F 86% 29.76 in 10.0 mi SSE 5.8 mph - N/A   Clear
10:35 AM 23.0 °F - 21.2 °F 93% 29.76 in 10.0 mi Calm Calm - N/A   Clear
10:55 AM 24.8 °F - 21.2 °F 86% 29.76 in 10.0 mi Calm Calm - N/A   Clear
11:15 AM 26.6 °F - 21.2 °F 80% 29.75 in 10.0 mi Calm Calm - N/A   Clear
11:35 AM 26.6 °F - 21.2 °F 80% 29.72 in 10.0 mi Calm Calm - N/A   Clear
11:55 AM 30.2 °F 26.7 °F 23.0 °F 75% 29.72 in 10.0 mi SW 3.5 mph - N/A   Clear
12:15 PM 30.2 °F 26.7 °F 24.8 °F 80% 29.71 in 10.0 mi WSW 3.5 mph - N/A   Clear
12:35 PM 30.2 °F - 24.8 °F 80% 29.70 in 10.0 mi Calm Calm - N/A   Clear
12:55 PM 32.0 °F 26.4 °F 24.8 °F 75% 29.71 in 10.0 mi West 5.8 mph - N/A   Clear
1:15 PM 32.0 °F 26.4 °F 24.8 °F 75% 29.70 in 10.0 mi West 5.8 mph - N/A   Clear
1:35 PM 32.0 °F 24.8 °F 26.6 °F 80% 29.70 in 10.0 mi West 8.1 mph - N/A   Clear
1:55 PM 32.0 °F 25.6 °F 24.8 °F 75% 29.70 in 10.0 mi West 6.9 mph - N/A   Clear
2:15 PM 32.0 °F 25.6 °F 24.8 °F 75% 29.70 in 10.0 mi West 6.9 mph - N/A   Clear
2:35 PM 32.0 °F 27.5 °F 24.8 °F 75% 29.70 in 10.0 mi WSW 4.6 mph - N/A   Clear
2:55 PM 32.0 °F 24.8 °F 26.6 °F 80% 29.71 in 10.0 mi West 8.1 mph - N/A   Clear
3:15 PM 32.0 °F 26.4 °F 26.6 °F 80% 29.71 in 10.0 mi WSW 5.8 mph - N/A   Clear
3:35 PM 32.0 °F 25.6 °F 26.6 °F 80% 29.71 in 10.0 mi WSW 6.9 mph - N/A   Clear
3:55 PM 32.0 °F 26.4 °F 26.6 °F 80% 29.72 in 10.0 mi West 5.8 mph - N/A   Clear
4:15 PM 32.0 °F 25.6 °F 24.8 °F 75% 29.73 in 10.0 mi West 6.9 mph - N/A   Clear
4:35 PM 30.2 °F 21.9 °F 24.8 °F 80% 29.73 in 10.0 mi West 9.2 mph - N/A   Clear
4:55 PM 28.4 °F 22.2 °F 23.0 °F 80% 29.74 in 10.0 mi West 5.8 mph - N/A   Clear
5:15 PM 26.6 °F 20.0 °F 23.0 °F 86% 29.74 in 10.0 mi West 5.8 mph - N/A   Clear
5:35 PM 26.6 °F 19.1 °F 23.0 °F 86% 29.75 in 10.0 mi West 6.9 mph - N/A   Clear
5:55 PM 26.6 °F 22.6 °F 21.2 °F 80% 29.75 in 10.0 mi West 3.5 mph - N/A   Clear
6:15 PM 24.8 °F 20.5 °F 21.2 °F 86% 29.75 in 10.0 mi West 3.5 mph - N/A   Clear
6:35 PM 24.8 °F 20.5 °F 21.2 °F 86% 29.75 in 10.0 mi WSW 3.5 mph - N/A   Clear
6:55 PM 23.0 °F 15.8 °F 21.2 °F 93% 29.75 in 10.0 mi West 5.8 mph - N/A   Clear
7:15 PM 23.0 °F 18.4 °F 21.2 °F 93% 29.75 in 10.0 mi West 3.5 mph - N/A   Clear
7:35 PM 23.0 °F - 21.2 °F 93% 29.75 in 10.0 mi Calm Calm - N/A   Scattered Clouds
7:55 PM 23.0 °F - 21.2 °F 93% 29.75 in 10.0 mi Calm Calm - N/A   Scattered Clouds
8:15 PM 23.0 °F - 21.2 °F 93% 29.74 in 10.0 mi Calm Calm - N/A   Clear
8:35 PM 21.2 °F 16.4 °F 21.2 °F 100% 29.74 in 10.0 mi SSW 3.5 mph - N/A   Clear
8:55 PM 21.2 °F - 19.4 °F 93% 29.75 in 10.0 mi Calm Calm - N/A   Clear
9:35 PM 19.4 °F - 17.6 °F 93% 29.76 in 10.0 mi Calm Calm - N/A   Clear
9:55 PM 19.4 °F - 17.6 °F 93% 29.76 in 7.0 mi Calm Calm - N/A   Clear
10:15 PM 19.4 °F 14.3 °F 19.4 °F 100% 29.75 in 5.0 mi West 3.5 mph - N/A   Clear
10:35 PM 19.4 °F - 19.4 °F 100% 29.75 in 1.8 mi Calm Calm - N/A   Mist
10:55 PM 17.6 °F - 17.6 °F 100% 29.75 in 0.5 mi Calm Calm - N/A Fog Light Freezing Fog
11:15 PM 19.4 °F - 17.6 °F 93% 29.74 in 5.0 mi Calm Calm - N/A   Scattered Clouds
11:35 PM 19.4 °F - 19.4 °F 100% 29.73 in 5.0 mi Calm Calm - N/A   Scattered Clouds
11:55 PM 19.4 °F - 19.4 °F 100% 29.72 in 7.0 mi Calm Calm - N/A   Scattered Clouds